sensor_id;sensor_type;location;lat;lon;timestamp;P1;durP1;ratioP1;P2;durP2;ratioP2
29414;SDS011;20303;48.302;11.914;2023-07-30T00:09:32;3.15;;;2.47;;
29414;SDS011;20303;48.302;11.914;2023-07-30T00:19:33;3.88;;;2.80;;
29414;SDS011;20303;48.302;11.914;2023-07-30T00:29:35;3.55;;;2.80;;
29414;SDS011;20303;48.302;11.914;2023-07-30T00:39:36;2.95;;;2.30;;
29414;SDS011;20303;48.302;11.914;2023-07-30T00:49:37;2.75;;;2.42;;
29414;SDS011;20303;48.302;11.914;2023-07-30T00:59:39;2.80;;;2.47;;
29414;SDS011;20303;48.302;11.914;2023-07-30T01:09:40;4.22;;;2.55;;
29414;SDS011;20303;48.302;11.914;2023-07-30T01:19:41;3.13;;;2.60;;
29414;SDS011;20303;48.302;11.914;2023-07-30T01:29:42;2.67;;;2.30;;
29414;SDS011;20303;48.302;11.914;2023-07-30T01:39:51;2.63;;;2.10;;
29414;SDS011;20303;48.302;11.914;2023-07-30T01:49:52;2.92;;;2.28;;
29414;SDS011;20303;48.302;11.914;2023-07-30T01:59:53;3.85;;;2.30;;
29414;SDS011;20303;48.302;11.914;2023-07-30T02:09:55;3.45;;;2.30;;
29414;SDS011;20303;48.302;11.914;2023-07-30T02:19:56;2.33;;;2.00;;
29414;SDS011;20303;48.302;11.914;2023-07-30T02:29:57;2.70;;;2.22;;
29414;SDS011;20303;48.302;11.914;2023-07-30T02:39:58;2.55;;;1.90;;
29414;SDS011;20303;48.302;11.914;2023-07-30T02:49:59;2.33;;;2.10;;
29414;SDS011;20303;48.302;11.914;2023-07-30T03:00:02;2.70;;;2.10;;
29414;SDS011;20303;48.302;11.914;2023-07-30T03:10:04;2.20;;;1.90;;
29414;SDS011;20303;48.302;11.914;2023-07-30T03:20:05;2.22;;;1.85;;
29414;SDS011;20303;48.302;11.914;2023-07-30T03:30:07;3.33;;;2.00;;
29414;SDS011;20303;48.302;11.914;2023-07-30T03:40:09;2.80;;;1.90;;
29414;SDS011;20303;48.302;11.914;2023-07-30T03:50:10;2.38;;;1.90;;
29414;SDS011;20303;48.302;11.914;2023-07-30T04:00:11;5.38;;;2.20;;
29414;SDS011;20303;48.302;11.914;2023-07-30T04:10:12;3.67;;;2.22;;
29414;SDS011;20303;48.302;11.914;2023-07-30T04:20:13;2.53;;;2.05;;
29414;SDS011;20303;48.302;11.914;2023-07-30T04:30:14;3.15;;;2.10;;
29414;SDS011;20303;48.302;11.914;2023-07-30T04:40:15;3.92;;;2.28;;
29414;SDS011;20303;48.302;11.914;2023-07-30T04:50:17;2.60;;;2.08;;
29414;SDS011;20303;48.302;11.914;2023-07-30T05:00:18;3.15;;;2.10;;
29414;SDS011;20303;48.302;11.914;2023-07-30T05:10:19;3.63;;;2.10;;
29414;SDS011;20303;48.302;11.914;2023-07-30T05:20:20;3.00;;;2.00;;
29414;SDS011;20303;48.302;11.914;2023-07-30T05:30:21;3.88;;;2.20;;
29414;SDS011;20303;48.302;11.914;2023-07-30T05:40:22;2.85;;;2.15;;
29414;SDS011;20303;48.302;11.914;2023-07-30T05:50:23;2.53;;;1.95;;
29414;SDS011;20303;48.302;11.914;2023-07-30T06:00:24;7.72;;;2.40;;
29414;SDS011;20303;48.302;11.914;2023-07-30T06:10:25;5.80;;;2.40;;
29414;SDS011;20303;48.302;11.914;2023-07-30T06:20:26;5.63;;;2.83;;
29414;SDS011;20303;48.302;11.914;2023-07-30T06:30:27;7.47;;;2.90;;
29414;SDS011;20303;48.302;11.914;2023-07-30T06:40:28;9.95;;;2.90;;
29414;SDS011;20303;48.302;11.914;2023-07-30T06:50:29;37.38;;;5.40;;
29414;SDS011;20303;48.302;11.914;2023-07-30T07:00:30;24.60;;;4.18;;
29414;SDS011;20303;48.302;11.914;2023-07-30T07:10:31;10.85;;;3.90;;
29414;SDS011;20303;48.302;11.914;2023-07-30T07:20:32;6.38;;;2.70;;
29414;SDS011;20303;48.302;11.914;2023-07-30T07:30:34;4.75;;;2.83;;
29414;SDS011;20303;48.302;11.914;2023-07-30T07:40:37;11.85;;;4.43;;
29414;SDS011;20303;48.302;11.914;2023-07-30T07:50:41;9.68;;;3.45;;
29414;SDS011;20303;48.302;11.914;2023-07-30T08:00:42;10.38;;;3.67;;
29414;SDS011;20303;48.302;11.914;2023-07-30T08:10:43;8.15;;;3.13;;
29414;SDS011;20303;48.302;11.914;2023-07-30T08:20:46;5.00;;;2.95;;
29414;SDS011;20303;48.302;11.914;2023-07-30T08:30:49;4.55;;;2.70;;
29414;SDS011;20303;48.302;11.914;2023-07-30T08:40:50;4.32;;;2.80;;
29414;SDS011;20303;48.302;11.914;2023-07-30T08:50:51;4.50;;;2.38;;
29414;SDS011;20303;48.302;11.914;2023-07-30T09:00:57;3.50;;;2.50;;
29414;SDS011;20303;48.302;11.914;2023-07-30T09:11:11;3.13;;;2.20;;
29414;SDS011;20303;48.302;11.914;2023-07-30T09:21:12;2.70;;;2.30;;
29414;SDS011;20303;48.302;11.914;2023-07-30T09:31:14;2.65;;;2.20;;
29414;SDS011;20303;48.302;11.914;2023-07-30T09:41:15;3.38;;;2.20;;
29414;SDS011;20303;48.302;11.914;2023-07-30T09:51:16;3.60;;;2.20;;
29414;SDS011;20303;48.302;11.914;2023-07-30T10:01:18;4.13;;;2.15;;
29414;SDS011;20303;48.302;11.914;2023-07-30T10:11:21;4.03;;;2.20;;
29414;SDS011;20303;48.302;11.914;2023-07-30T10:21:23;3.03;;;2.00;;
29414;SDS011;20303;48.302;11.914;2023-07-30T10:31:26;2.38;;;2.00;;
29414;SDS011;20303;48.302;11.914;2023-07-30T10:41:39;2.45;;;2.10;;
29414;SDS011;20303;48.302;11.914;2023-07-30T10:51:41;2.28;;;2.00;;
29414;SDS011;20303;48.302;11.914;2023-07-30T11:01:43;2.63;;;2.20;;
29414;SDS011;20303;48.302;11.914;2023-07-30T11:11:44;2.28;;;2.00;;
29414;SDS011;20303;48.302;11.914;2023-07-30T11:21:49;2.10;;;1.90;;
29414;SDS011;20303;48.302;11.914;2023-07-30T11:31:51;1.80;;;1.70;;
29414;SDS011;20303;48.302;11.914;2023-07-30T11:41:52;2.10;;;1.90;;
29414;SDS011;20303;48.302;11.914;2023-07-30T11:52:04;2.05;;;1.85;;
29414;SDS011;20303;48.302;11.914;2023-07-30T12:02:05;2.03;;;1.75;;
29414;SDS011;20303;48.302;11.914;2023-07-30T12:12:08;2.33;;;1.85;;
29414;SDS011;20303;48.302;11.914;2023-07-30T12:22:09;2.25;;;1.80;;
29414;SDS011;20303;48.302;11.914;2023-07-30T12:32:10;2.00;;;1.80;;
29414;SDS011;20303;48.302;11.914;2023-07-30T12:42:11;2.00;;;1.80;;
29414;SDS011;20303;48.302;11.914;2023-07-30T12:52:12;1.70;;;1.50;;
29414;SDS011;20303;48.302;11.914;2023-07-30T13:02:13;3.15;;;1.85;;
29414;SDS011;20303;48.302;11.914;2023-07-30T13:12:14;1.92;;;1.73;;
29414;SDS011;20303;48.302;11.914;2023-07-30T13:22:15;3.08;;;1.90;;
29414;SDS011;20303;48.302;11.914;2023-07-30T13:32:16;2.20;;;1.90;;
29414;SDS011;20303;48.302;11.914;2023-07-30T13:42:17;2.20;;;1.80;;
29414;SDS011;20303;48.302;11.914;2023-07-30T13:52:18;2.25;;;2.00;;
29414;SDS011;20303;48.302;11.914;2023-07-30T14:02:19;2.47;;;1.83;;
29414;SDS011;20303;48.302;11.914;2023-07-30T14:12:20;3.10;;;2.05;;
29414;SDS011;20303;48.302;11.914;2023-07-30T14:22:21;4.00;;;2.00;;
29414;SDS011;20303;48.302;11.914;2023-07-30T14:32:22;2.17;;;1.75;;
29414;SDS011;20303;48.302;11.914;2023-07-30T14:42:24;2.80;;;2.10;;
29414;SDS011;20303;48.302;11.914;2023-07-30T14:52:25;2.30;;;2.10;;
29414;SDS011;20303;48.302;11.914;2023-07-30T15:02:26;2.05;;;1.80;;
29414;SDS011;20303;48.302;11.914;2023-07-30T15:12:30;2.10;;;1.90;;
29414;SDS011;20303;48.302;11.914;2023-07-30T15:22:31;2.58;;;1.73;;
29414;SDS011;20303;48.302;11.914;2023-07-30T15:32:32;2.42;;;2.13;;
29414;SDS011;20303;48.302;11.914;2023-07-30T15:42:42;2.17;;;1.97;;
29414;SDS011;20303;48.302;11.914;2023-07-30T15:52:46;3.72;;;2.30;;
29414;SDS011;20303;48.302;11.914;2023-07-30T16:02:47;3.20;;;2.13;;
29414;SDS011;20303;48.302;11.914;2023-07-30T16:12:48;4.38;;;2.28;;
29414;SDS011;20303;48.302;11.914;2023-07-30T16:22:49;4.07;;;2.30;;
29414;SDS011;20303;48.302;11.914;2023-07-30T16:32:50;2.97;;;2.22;;
29414;SDS011;20303;48.302;11.914;2023-07-30T16:42:51;4.43;;;2.17;;
29414;SDS011;20303;48.302;11.914;2023-07-30T16:52:52;4.10;;;2.40;;
29414;SDS011;20303;48.302;11.914;2023-07-30T17:02:53;3.92;;;2.40;;
29414;SDS011;20303;48.302;11.914;2023-07-30T17:12:56;4.68;;;2.42;;
29414;SDS011;20303;48.302;11.914;2023-07-30T17:22:57;3.30;;;2.33;;
29414;SDS011;20303;48.302;11.914;2023-07-30T17:32:59;2.90;;;2.55;;
29414;SDS011;20303;48.302;11.914;2023-07-30T17:43:00;3.45;;;2.50;;
29414;SDS011;20303;48.302;11.914;2023-07-30T17:53:01;4.32;;;2.58;;
29414;SDS011;20303;48.302;11.914;2023-07-30T18:03:02;3.38;;;2.50;;
29414;SDS011;20303;48.302;11.914;2023-07-30T18:13:03;4.35;;;2.70;;
29414;SDS011;20303;48.302;11.914;2023-07-30T18:23:04;4.07;;;2.60;;
29414;SDS011;20303;48.302;11.914;2023-07-30T18:33:06;3.17;;;2.55;;
29414;SDS011;20303;48.302;11.914;2023-07-30T18:43:07;3.60;;;2.60;;
29414;SDS011;20303;48.302;11.914;2023-07-30T18:53:08;3.10;;;2.53;;
29414;SDS011;20303;48.302;11.914;2023-07-30T19:03:09;4.68;;;2.70;;
29414;SDS011;20303;48.302;11.914;2023-07-30T19:13:12;4.00;;;2.45;;
29414;SDS011;20303;48.302;11.914;2023-07-30T19:23:13;2.85;;;2.50;;
29414;SDS011;20303;48.302;11.914;2023-07-30T19:33:14;3.25;;;2.35;;
29414;SDS011;20303;48.302;11.914;2023-07-30T19:43:15;4.03;;;2.50;;
29414;SDS011;20303;48.302;11.914;2023-07-30T19:53:21;4.95;;;2.42;;
29414;SDS011;20303;48.302;11.914;2023-07-30T20:03:24;5.47;;;2.20;;
29414;SDS011;20303;48.302;11.914;2023-07-30T20:13:26;4.38;;;2.22;;
29414;SDS011;20303;48.302;11.914;2023-07-30T20:23:27;4.82;;;2.30;;
29414;SDS011;20303;48.302;11.914;2023-07-30T20:33:28;4.78;;;2.00;;
29414;SDS011;20303;48.302;11.914;2023-07-30T20:43:29;9.95;;;2.50;;
29414;SDS011;20303;48.302;11.914;2023-07-30T20:53:30;5.18;;;2.20;;
29414;SDS011;20303;48.302;11.914;2023-07-30T21:03:31;5.53;;;2.20;;
29414;SDS011;20303;48.302;11.914;2023-07-30T21:13:32;3.65;;;1.90;;
29414;SDS011;20303;48.302;11.914;2023-07-30T21:23:33;6.20;;;2.30;;
29414;SDS011;20303;48.302;11.914;2023-07-30T21:33:35;3.63;;;2.20;;
29414;SDS011;20303;48.302;11.914;2023-07-30T21:43:36;3.13;;;2.13;;
29414;SDS011;20303;48.302;11.914;2023-07-30T21:53:37;3.38;;;2.10;;
29414;SDS011;20303;48.302;11.914;2023-07-30T22:03:39;5.93;;;2.10;;
29414;SDS011;20303;48.302;11.914;2023-07-30T22:13:40;3.03;;;1.98;;
29414;SDS011;20303;48.302;11.914;2023-07-30T22:23:41;3.55;;;2.00;;
29414;SDS011;20303;48.302;11.914;2023-07-30T22:33:42;7.28;;;2.00;;
29414;SDS011;20303;48.302;11.914;2023-07-30T22:43:43;4.10;;;1.90;;
29414;SDS011;20303;48.302;11.914;2023-07-30T22:53:44;5.65;;;2.08;;
29414;SDS011;20303;48.302;11.914;2023-07-30T23:03:45;4.50;;;2.00;;
29414;SDS011;20303;48.302;11.914;2023-07-30T23:13:46;4.70;;;1.90;;
29414;SDS011;20303;48.302;11.914;2023-07-30T23:23:47;5.22;;;2.05;;
29414;SDS011;20303;48.302;11.914;2023-07-30T23:33:48;3.30;;;1.90;;
29414;SDS011;20303;48.302;11.914;2023-07-30T23:43:49;3.95;;;2.00;;
